• Join FlightAware (Why Join?)
  • Login
  • US Flag 
05:00PM EST


 

Airport Tracker/Info


-or-


 

Live Flight TrackerFlight Track Log ✈ SKW5516 ✈ 08-Jun-2013 ✈ KLAX - KCOS

Flight Track Log - Related Links

Times and Time Zones

All times are in EDT time to prevent confusion due to time zone crossing. See the SKW5516 flight status page for this flight to view local times or setup timezone preferences in your user account.

Time Position Orientation Groundspeed Altitude Reporting Facility
EDT Latitude Longitude Course Direction KTS MPH feet Rate Location/Type
09:29PM 34.0896 -118.0694 62° Northeast  Level Estimated
09:30PM 34.1385 -117.9563 62° Northeast  Level Estimated
09:31PM 34.1872 -117.8430 62° Northeast  Level Estimated
09:32PM 34.2358 -117.7296 63° Northeast  Level Estimated
09:33PM 34.2843 -117.6160 63° Northeast  Level Estimated
09:34PM 34.3327 -117.5024 63° Northeast  Level Estimated
09:35PM 34.3811 -117.3886 63° Northeast  Level Estimated
09:36PM 34.4293 -117.2746 63° Northeast  Level Estimated
09:37PM 34.4774 -117.1606 63° Northeast  Level Estimated
09:38PM 34.5254 -117.0464 63° Northeast  Level Estimated
09:39PM 34.5732 -116.9320 63° Northeast  Level Estimated
09:40PM 34.6210 -116.8176 63° Northeast  Level Estimated
09:41PM 34.6687 -116.7030 63° Northeast  Level Estimated
09:42PM 34.7163 -116.5883 63° Northeast  Level Estimated
09:43PM 34.7637 -116.4734 63° Northeast  Level Estimated
09:44PM 34.8111 -116.3584 63° Northeast  Level Estimated
09:45PM 34.8583 -116.2433 63° Northeast  Level Estimated
09:46PM 34.9054 -116.1280 63° Northeast  Level Estimated
09:47PM 34.9525 -116.0127 64° Northeast  Level Estimated
09:48PM 34.9994 -115.8971 64° Northeast  Level Estimated
09:49PM 35.0462 -115.7815 64° Northeast  Level Estimated
09:50PM 35.0929 -115.6657 64° Northeast  Level Estimated
09:51PM 35.1395 -115.5498 64° Northeast  Level Estimated
09:52PM 35.1860 -115.4337 64° Northeast  Level Estimated
09:53PM 35.2323 -115.3176 64° Northeast  Level Estimated
09:54PM 35.2786 -115.2013 64° Northeast  Level Estimated
09:55PM 35.3247 -115.0848 64° Northeast  Level Estimated
09:56PM 35.3708 -114.9682 64° Northeast  Level Estimated
09:57PM 35.4167 -114.8515 64° Northeast  Level Estimated
09:58PM 35.4625 -114.7347 64° Northeast  Level Estimated
09:59PM 35.5082 -114.6177 64° Northeast  Level Estimated
10:00PM 35.5538 -114.5006 64° Northeast  Level Estimated
10:01PM 35.5992 -114.3834 64° Northeast  Level Estimated
10:02PM 35.6446 -114.2660 65° Northeast  Level Estimated
10:03PM 35.6898 -114.1485 65° Northeast  Level Estimated
10:04PM 35.7350 -114.0308 65° Northeast  Level Estimated
10:05PM 35.7800 -113.9131 65° Northeast  Level Estimated
10:06PM 35.8249 -113.7952 65° Northeast  Level Estimated
10:07PM 35.8697 -113.6771 65° Northeast  Level Estimated
10:08PM 35.9143 -113.5589 65° Northeast  Level Estimated
10:09PM 35.9589 -113.4406 65° Northeast  Level Estimated
10:10PM 36.0033 -113.3222 65° Northeast  Level Estimated
10:11PM 36.0476 -113.2036 65° Northeast  Level Estimated
10:12PM 36.0918 -113.0849 65° Northeast  Level Estimated
10:13PM 36.1359 -112.9661 65° Northeast  Level Estimated
10:14PM 36.1799 -112.8471 65° Northeast  Level Estimated
10:15PM 36.2237 -112.7280 65° Northeast  Level Estimated
10:16PM 36.2674 -112.6087 66° East  Level Estimated
10:17PM 36.3110 -112.4894 66° East  Level Estimated
10:18PM 36.3545 -112.3699 66° East  Level Estimated
10:19PM 36.3979 -112.2502 66° East  Level Estimated
10:20PM 36.4412 -112.1304 66° East  Level Estimated
10:21PM 36.4843 -112.0105 66° East  Level Estimated
10:22PM 36.5273 -111.8905 66° East  Level Estimated
10:23PM 36.5702 -111.7703 66° East  Level Estimated
10:24PM 36.6129 -111.6500 66° East  Level Estimated
10:25PM 36.6556 -111.5296 66° East  Level Estimated
10:26PM 36.6981 -111.4090 66° East  Level Estimated
10:27PM 36.7405 -111.2883 66° East  Level Estimated
10:28PM 36.7828 -111.1674 66° East  Level Estimated
10:29PM 36.8250 -111.0464 66° East  Level Estimated
10:30PM 36.8670 -110.9253 67° East  Level Estimated
10:31PM 36.9090 -110.8041 67° East  Level Estimated
10:32PM 36.9507 -110.6827 67° East  Level Estimated
10:33PM 36.9924 -110.5612 67° East  Level Estimated
10:34PM 37.0340 -110.4396 67° East  Level Estimated
10:35PM 37.0754 -110.3178 67° East  Level Estimated
10:36PM 37.1167 -110.1959 67° East  Level Estimated
10:37PM 37.1578 -110.0739 67° East  Level Estimated
10:38PM 37.1989 -109.9517 67° East  Level Estimated
10:39PM 37.2398 -109.8294 67° East  Level Estimated
10:40PM 37.2806 -109.7069 67° East  Level Estimated
10:41PM 37.3213 -109.5844 67° East  Level Estimated
10:42PM 37.3618 -109.4617 67° East  Level Estimated
10:43PM 37.4022 -109.3388 67° East  Level Estimated
10:44PM 37.4425 -109.2159 68° East  Level Estimated
10:45PM 37.4827 -109.0928 68° East  Level Estimated
10:46PM 37.5227 -108.9695 68° East  Level Estimated
10:47PM 37.5626 -108.8462 68° East  Level Estimated
10:48PM 37.6024 -108.7227 68° East  Level Estimated
10:49PM 37.6421 -108.5990 68° East  Level Estimated
10:50PM 37.6816 -108.4753 68° East  Level Estimated
10:51PM 37.7210 -108.3514 68° East  Level Estimated
10:52PM 37.7602 -108.2274 68° East  Level Estimated
10:53PM 37.7994 -108.1032 68° East  Level Estimated
10:54PM 37.8384 -107.9789 68° East  Level Estimated
10:55PM 37.8772 -107.8545 68° East  Level Estimated
10:56PM 37.9160 -107.7299 68° East  Level Estimated
10:57PM 37.9546 -107.6053 69° East  Level Estimated
10:58PM 37.9931 -107.4805 69° East  Level Estimated
10:59PM 38.0314 -107.3555 69° East  Level Estimated
11:00PM 38.0696 -107.2305 69° East  Level Estimated
11:01PM 38.1077 -107.1052 69° East  Level Estimated
11:02PM 38.1456 -106.9799 69° East  Level Estimated
11:03PM 38.1834 -106.8545 69° East  Level Estimated
11:04PM 38.2211 -106.7289 69° East  Level Estimated
11:05PM 38.2587 -106.6031 69° East  Level Estimated
11:06PM 38.2961 -106.4773 69° East  Level Estimated
11:07PM 38.3333 -106.3513 69° East  Level Estimated
11:08PM 38.3705 -106.2252 69° East  Level Estimated
11:09PM 38.4075 -106.0990 69° East  Level Estimated
11:10PM 38.4444 -105.9726 70° East  Level Estimated
11:11PM 38.4811 -105.8461 70° East  Level Estimated
11:12PM 38.5177 -105.7195 70° East  Level Estimated
11:13PM 38.5541 -105.5927 70° East  Level Estimated
11:14PM 38.5905 -105.4658 70° East  Level Estimated
11:15PM 38.6267 -105.3388 70° East  Level Estimated
11:16PM 38.6627 -105.2117 70° East  Level Estimated
11:17PM 38.6986 -105.0844 70° East  Level Estimated
11:18PM 38.7344 -104.9570 70° East  Level Estimated
11:19PM 38.7700 -104.8295 70° East  Level Estimated
11:20PM 38.8055 -104.7018 70° East  Level Estimated
11:21PM 38.8058 -104.7008 70° East  Level Estimated
11:22PM 38.8058 -104.7008 159° South  Level Estimated
11:23PM 38.8058 -104.7008 159° South  Level Estimated
11:24PM 38.8058 -104.7008 159° South  Level Estimated
11:25PM 38.8058 -104.7008 159° South  Level Estimated
11:26PM 38.8058 -104.7008 159° South  Level Estimated